createdAt,value
2023-05-15T00:01:56.096Z,2.75
2023-05-15T00:06:57.564Z,2.80
2023-05-15T00:11:59.081Z,2.90
2023-05-15T00:17:00.663Z,2.70
2023-05-15T00:22:02.144Z,2.90
2023-05-15T00:27:04.429Z,3.05
2023-05-15T00:32:06.191Z,2.92
2023-05-15T00:37:08.576Z,3.15
2023-05-15T00:42:10.523Z,3.15
2023-05-15T00:47:12.587Z,3.03
2023-05-15T00:52:14.638Z,3.25
2023-05-15T00:57:16.731Z,3.08
2023-05-15T01:02:21.276Z,3.13
2023-05-15T01:07:22.806Z,3.20
2023-05-15T01:12:27.052Z,3.17
2023-05-15T01:17:28.560Z,3.05
2023-05-15T01:23:05.347Z,3.35
2023-05-15T01:28:09.660Z,2.83
2023-05-15T01:33:22.983Z,3.05
2023-05-15T01:38:42.640Z,3.08
2023-05-15T01:43:45.607Z,3.20
2023-05-15T01:48:48.365Z,3.10
2023-05-15T01:53:50.731Z,3.45
2023-05-15T01:58:52.581Z,3.35
2023-05-15T02:03:54.862Z,3.47
2023-05-15T02:08:57.651Z,3.28
2023-05-15T02:13:59.293Z,3.35
2023-05-15T02:19:00.884Z,3.53
2023-05-15T02:24:02.494Z,4.00
2023-05-15T02:29:11.754Z,3.80
2023-05-15T02:34:17.461Z,3.38
2023-05-15T02:39:20.383Z,3.40
2023-05-15T02:44:22.052Z,3.70
2023-05-15T02:49:23.696Z,3.55
2023-05-15T02:54:25.343Z,3.63
2023-05-15T02:59:26.862Z,3.60
2023-05-15T03:04:28.346Z,3.28
2023-05-15T03:09:29.849Z,3.50
2023-05-15T03:14:31.335Z,3.65
2023-05-15T03:19:32.836Z,3.45
2023-05-15T03:24:34.326Z,3.78
2023-05-15T03:29:35.862Z,4.07
2023-05-15T03:34:38.738Z,2.97
2023-05-15T03:39:41.275Z,3.72
2023-05-15T03:44:42.758Z,3.70
2023-05-15T03:49:44.526Z,3.92
2023-05-15T03:54:46.023Z,3.45
2023-05-15T03:59:47.522Z,3.97
2023-05-15T04:04:49.093Z,3.55
2023-05-15T04:09:50.884Z,3.42
2023-05-15T04:14:52.427Z,3.40
2023-05-15T04:19:53.944Z,3.05
2023-05-15T04:24:55.530Z,3.22
2023-05-15T04:29:57.541Z,3.42
2023-05-15T04:34:59.137Z,3.90
2023-05-15T04:40:00.629Z,3.28
2023-05-15T04:45:02.541Z,3.78
2023-05-15T04:50:04.393Z,3.63
2023-05-15T04:55:06.261Z,4.35
2023-05-15T05:00:12.272Z,3.22
2023-05-15T05:05:14.904Z,3.60
2023-05-15T05:10:16.573Z,3.50
2023-05-15T05:15:18.108Z,3.83
2023-05-15T05:20:19.577Z,3.42
2023-05-15T05:25:21.105Z,3.08
2023-05-15T05:30:22.646Z,3.50
2023-05-15T05:35:24.433Z,3.25
2023-05-15T05:40:26.094Z,3.40
2023-05-15T05:45:28.001Z,3.45
2023-05-15T05:50:29.817Z,3.35
2023-05-15T05:55:31.543Z,3.15
2023-05-15T06:00:33.078Z,3.05
2023-05-15T06:05:34.917Z,3.45
2023-05-15T06:10:36.438Z,3.58
2023-05-15T06:15:37.901Z,3.75
2023-05-15T06:20:39.527Z,3.83
2023-05-15T06:25:41.068Z,3.03
2023-05-15T06:30:42.724Z,3.13
2023-05-15T06:35:44.241Z,3.38
2023-05-15T06:40:45.988Z,3.05
2023-05-15T06:45:47.556Z,3.47
2023-05-15T06:50:49.496Z,3.05
2023-05-15T06:55:51.016Z,2.88
2023-05-15T07:00:54.136Z,2.90
2023-05-15T07:05:57.345Z,3.03
2023-05-15T07:10:58.813Z,2.90
2023-05-15T07:16:00.371Z,3.00
2023-05-15T07:21:02.008Z,2.80
2023-05-15T07:26:03.510Z,3.20
2023-05-15T07:31:05.104Z,2.60
2023-05-15T07:36:06.697Z,2.55
2023-05-15T07:41:08.165Z,3.25
2023-05-15T07:46:09.705Z,2.55
2023-05-15T07:51:11.278Z,2.10
2023-05-15T07:56:12.882Z,2.55
2023-05-15T08:01:14.356Z,2.17
2023-05-15T08:06:16.313Z,2.20
2023-05-15T08:11:18.319Z,2.80
2023-05-15T08:16:19.906Z,1.95
2023-05-15T08:21:21.482Z,2.78
2023-05-15T08:26:23.102Z,2.78
2023-05-15T08:31:24.627Z,1.90
2023-05-15T08:36:26.142Z,2.45
2023-05-15T08:41:41.239Z,1.95
2023-05-15T08:46:43.362Z,2.30
2023-05-15T08:51:45.683Z,2.20
2023-05-15T08:56:48.905Z,2.20
2023-05-15T09:01:51.038Z,2.10
2023-05-15T09:06:52.981Z,2.35
2023-05-15T09:11:54.752Z,2.78
2023-05-15T09:16:56.404Z,2.33
2023-05-15T09:22:14.342Z,2.30
2023-05-15T09:27:15.818Z,2.33
2023-05-15T09:32:18.368Z,2.15
2023-05-15T09:37:30.147Z,2.50
2023-05-15T09:42:34.420Z,2.03
2023-05-15T09:47:36.286Z,2.03
2023-05-15T09:52:38.718Z,1.65
2023-05-15T09:57:40.350Z,2.28
2023-05-15T10:02:41.852Z,2.00
2023-05-15T10:07:43.389Z,1.63
2023-05-15T10:12:47.250Z,3.03
2023-05-15T10:17:50.669Z,2.17
2023-05-15T10:22:53.589Z,1.92
2023-05-15T10:27:55.409Z,2.25
2023-05-15T10:32:57.948Z,1.88
2023-05-15T10:38:00.534Z,1.65
2023-05-15T10:43:02.213Z,2.00
2023-05-15T10:48:05.925Z,1.85
2023-05-15T10:53:09.645Z,1.70
2023-05-15T10:58:11.208Z,1.55
2023-05-15T11:03:16.200Z,1.95
2023-05-15T11:08:25.929Z,1.70
2023-05-15T11:13:27.514Z,2.38
2023-05-15T11:18:28.983Z,1.63
2023-05-15T11:23:37.996Z,1.95
2023-05-15T11:28:43.835Z,1.77
2023-05-15T11:33:52.214Z,1.92
2023-05-15T11:38:53.978Z,2.35
2023-05-15T11:43:55.607Z,2.15
2023-05-15T11:48:58.973Z,1.95
2023-05-15T11:54:02.576Z,2.70
2023-05-15T11:59:04.064Z,2.38
2023-05-15T12:04:11.797Z,2.20
2023-05-15T12:09:14.994Z,2.53
2023-05-15T12:14:16.674Z,2.67
2023-05-15T12:19:18.205Z,2.30
2023-05-15T12:24:20.163Z,2.25
2023-05-15T12:29:21.643Z,2.65
2023-05-15T12:34:23.195Z,2.30
2023-05-15T12:39:24.691Z,2.90
2023-05-15T12:44:27.281Z,2.70
2023-05-15T12:49:28.797Z,2.47
2023-05-15T12:54:30.535Z,2.13
2023-05-15T12:59:32.057Z,2.40
2023-05-15T13:04:33.609Z,2.53
2023-05-15T13:09:35.567Z,2.53
2023-05-15T13:14:37.082Z,2.10
2023-05-15T13:19:38.653Z,2.17
2023-05-15T13:24:40.181Z,2.10
2023-05-15T13:29:41.842Z,1.90
2023-05-15T13:34:43.386Z,2.42
2023-05-15T13:39:45.283Z,2.75
2023-05-15T13:44:46.754Z,1.92
2023-05-15T13:49:48.430Z,2.88
2023-05-15T13:54:50.010Z,2.25
2023-05-15T13:59:51.488Z,2.42
2023-05-15T14:04:53.628Z,2.45
2023-05-15T14:09:55.159Z,2.13
2023-05-15T14:14:57.471Z,2.50
2023-05-15T14:19:58.941Z,3.03
2023-05-15T14:25:00.399Z,2.08
2023-05-15T14:30:01.984Z,2.00
2023-05-15T14:35:03.612Z,2.40
2023-05-15T14:40:05.613Z,2.15
2023-05-15T14:45:08.131Z,1.77
2023-05-15T14:50:09.933Z,2.17
2023-05-15T14:55:11.867Z,2.30
2023-05-15T15:00:13.890Z,2.03
2023-05-15T15:05:15.877Z,2.15
2023-05-15T15:10:17.406Z,2.38
2023-05-15T15:15:19.497Z,2.15
2023-05-15T15:20:21.056Z,2.35
2023-05-15T15:25:22.830Z,2.15
2023-05-15T15:30:24.455Z,2.05
2023-05-15T15:35:26.142Z,1.70
2023-05-15T15:40:29.813Z,1.65
2023-05-15T15:45:31.497Z,1.63
2023-05-15T15:50:33.350Z,1.85
2023-05-15T15:55:34.860Z,1.88
2023-05-15T16:00:37.530Z,1.75
2023-05-15T16:05:38.995Z,1.75
2023-05-15T16:10:40.833Z,2.05
2023-05-15T16:15:42.319Z,2.03
2023-05-15T16:20:43.859Z,2.10
2023-05-15T16:25:45.381Z,1.88
2023-05-15T16:30:49.529Z,2.35
2023-05-15T16:35:52.638Z,2.13
2023-05-15T16:40:54.101Z,1.92
2023-05-15T16:45:55.776Z,2.55
2023-05-15T16:50:57.353Z,1.95
2023-05-15T16:55:58.873Z,2.35
2023-05-15T17:01:00.343Z,2.65
2023-05-15T17:06:01.853Z,2.10
2023-05-15T17:11:03.327Z,2.10
2023-05-15T17:16:05.070Z,2.30
2023-05-15T17:21:06.610Z,2.30
2023-05-15T17:26:08.156Z,2.10
2023-05-15T17:31:10.739Z,2.40
2023-05-15T17:36:12.215Z,2.03
2023-05-15T17:41:13.677Z,2.30
2023-05-15T17:46:15.267Z,2.28
2023-05-15T17:51:17.011Z,2.55
2023-05-15T17:56:18.571Z,2.40
2023-05-15T18:01:20.236Z,2.45
2023-05-15T18:06:21.868Z,2.50
2023-05-15T18:11:23.427Z,2.22
2023-05-15T18:16:25.001Z,2.58
2023-05-15T18:21:26.665Z,2.22
2023-05-15T18:26:29.521Z,2.28
2023-05-15T18:31:31.066Z,2.17
2023-05-15T18:36:32.682Z,2.70
2023-05-15T18:41:34.138Z,2.15
2023-05-15T18:46:36.057Z,2.28
2023-05-15T18:51:37.879Z,2.33
2023-05-15T18:56:40.636Z,2.67
2023-05-15T19:01:45.191Z,2.58
2023-05-15T19:06:50.226Z,2.60
2023-05-15T19:11:52.537Z,2.22
2023-05-15T19:16:54.113Z,2.28
2023-05-15T19:21:55.729Z,3.25
2023-05-15T19:26:57.167Z,2.45
2023-05-15T19:31:58.653Z,2.95
2023-05-15T19:37:00.120Z,2.45
2023-05-15T19:42:01.631Z,3.30
2023-05-15T19:47:03.548Z,2.63
2023-05-15T19:52:05.470Z,3.10
2023-05-15T19:57:06.950Z,2.70
2023-05-15T20:02:10.509Z,2.58
2023-05-15T20:07:12.993Z,2.72
2023-05-15T20:12:14.462Z,2.85
2023-05-15T20:17:16.361Z,2.95
2023-05-15T20:22:17.841Z,2.92
2023-05-15T20:27:19.411Z,3.05
2023-05-15T20:32:21.364Z,3.08
2023-05-15T20:37:27.218Z,3.20
2023-05-15T20:42:28.738Z,3.47
2023-05-15T20:47:31.094Z,3.10
2023-05-15T20:52:32.678Z,2.83
2023-05-15T20:57:34.169Z,3.00
2023-05-15T21:02:35.671Z,3.15
2023-05-15T21:07:37.569Z,3.25
2023-05-15T21:12:39.870Z,3.60
2023-05-15T21:17:41.387Z,3.13
2023-05-15T21:22:42.892Z,3.47
2023-05-15T21:27:44.375Z,3.65
2023-05-15T21:32:45.976Z,3.28
2023-05-15T21:37:48.269Z,3.50
2023-05-15T21:42:49.913Z,3.35
2023-05-15T21:47:51.646Z,3.83
2023-05-15T21:52:53.234Z,3.22
2023-05-15T21:57:54.675Z,3.60
2023-05-15T22:02:56.447Z,3.63
2023-05-15T22:07:57.987Z,3.90
2023-05-15T22:13:02.659Z,3.72
2023-05-15T22:18:05.640Z,3.95
2023-05-15T22:23:07.537Z,3.35
2023-05-15T22:28:09.266Z,4.20
2023-05-15T22:33:10.838Z,3.83
2023-05-15T22:38:12.365Z,3.55
2023-05-15T22:43:13.945Z,4.05
2023-05-15T22:48:15.592Z,3.67
2023-05-15T22:53:17.136Z,3.88
2023-05-15T22:58:18.599Z,4.18
2023-05-15T23:03:20.153Z,4.00
2023-05-15T23:08:28.469Z,4.05
2023-05-15T23:13:30.036Z,4.13
2023-05-15T23:18:31.553Z,4.13
2023-05-15T23:23:33.022Z,3.95
2023-05-15T23:28:34.536Z,3.83
2023-05-15T23:33:36.325Z,4.20
2023-05-15T23:38:37.909Z,4.13
2023-05-15T23:43:39.384Z,4.43
2023-05-15T23:48:41.020Z,4.00
2023-05-15T23:53:42.783Z,4.30
2023-05-15T23:58:44.246Z,3.90
